Time;durP1;ratioP1;P1;durP2;ratioP2;P2;SDS_P1;SDS_P2;PMS_P1;PMS_P2;Temp;Humidity;BMP_temperature;BMP_pressure;BME280_temperature;BME280_humidity;BME280_pressure;Samples;Min_cycle;Max_cycle;Signal;HPM_P1;HPM_P2
2021/12/06 00:00:59;;;;;;;7.88;4.32;;;;;;;;;;5068370;28;20031;-52
2021/12/06 00:03:30;;;;;;;8.80;4.03;;;;;;;;;;5068324;28;20028;-50
2021/12/06 00:05:56;;;;;;;7.72;3.58;;;;;;;;;;5067941;28;20024;-52
2021/12/06 00:08:22;;;;;;;8.35;3.80;;;;;;;;;;5067499;28;20036;-52
2021/12/06 00:10:50;;;;;;;9.07;4.60;;;;;;;;;;5067864;28;20090;-52
2021/12/06 00:13:20;;;;;;;11.80;5.22;;;;;;;;;;5068603;28;20055;-53
2021/12/06 00:15:48;;;;;;;10.15;5.00;;;;;;;;;;5068375;28;20055;-53
2021/12/06 00:18:15;;;;;;;11.45;4.38;;;;;;;;;;5067808;28;20455;-52
2021/12/06 00:20:41;;;;;;;9.98;4.57;;;;;;;;;;5067936;28;20133;-53
2021/12/06 00:23:07;;;;;;;11.85;4.68;;;;;;;;;;5068355;28;20027;-50
2021/12/06 00:25:35;;;;;;;16.58;5.80;;;;;;;;;;5068638;28;20035;-53
2021/12/06 00:28:01;;;;;;;14.00;5.47;;;;;;;;;;5068922;28;20109;-52
2021/12/06 00:30:27;;;;;;;10.77;5.25;;;;;;;;;;5065805;28;20032;-52
2021/12/06 00:32:53;;;;;;;7.97;4.43;;;;;;;;;;5067985;28;20424;-50
2021/12/06 00:35:22;;;;;;;7.72;4.47;;;;;;;;;;5067648;28;20024;-54
2021/12/06 00:37:58;;;;;;;8.48;4.32;;;;;;;;;;5066085;28;20095;-52
2021/12/06 00:40:35;;;;;;;6.70;3.70;;;;;;;;;;5067612;28;20149;-54
2021/12/06 00:43:01;;;;;;;6.63;3.60;;;;;;;;;;5067501;28;20017;-53
2021/12/06 00:45:27;;;;;;;6.65;4.05;;;;;;;;;;5067553;28;20610;-51
2021/12/06 00:47:54;;;;;;;5.05;3.10;;;;;;;;;;5066124;28;20031;-52
2021/12/06 00:50:21;;;;;;;3.30;2.80;;;;;;;;;;5067172;28;20043;-53
2021/12/06 00:52:48;;;;;;;3.85;2.45;;;;;;;;;;5067390;28;20020;-54
2021/12/06 00:55:14;;;;;;;3.17;2.65;;;;;;;;;;5067658;28;20044;-52
2021/12/06 00:57:41;;;;;;;3.08;2.33;;;;;;;;;;5041125;28;20035;-53
2021/12/06 01:00:09;;;;;;;4.22;2.53;;;;;;;;;;5047431;28;20112;-53
2021/12/06 01:02:35;;;;;;;2.95;2.25;;;;;;;;;;5047135;28;20419;-53
2021/12/06 01:05:02;;;;;;;3.00;2.22;;;;;;;;;;5047272;28;20104;-52
2021/12/06 01:07:28;;;;;;;2.35;1.92;;;;;;;;;;5055459;28;20035;-53
2021/12/06 01:09:54;;;;;;;2.42;2.05;;;;;;;;;;5067137;28;20067;-53
2021/12/06 01:12:20;;;;;;;2.35;1.70;;;;;;;;;;5066681;28;20021;-51
2021/12/06 01:14:46;;;;;;;1.83;1.50;;;;;;;;;;5066988;28;20103;-52
2021/12/06 01:17:12;;;;;;;3.35;1.60;;;;;;;;;;5065561;28;20100;-53
2021/12/06 01:19:38;;;;;;;1.98;1.33;;;;;;;;;;5066913;28;20024;-52
2021/12/06 01:22:21;;;;;;;1.15;1.05;;;;;;;;;;5066443;28;20021;-54
2021/12/06 01:24:55;;;;;;;1.50;1.30;;;;;;;;;;5066726;28;20036;-53
2021/12/06 01:27:41;;;;;;;2.05;1.40;;;;;;;;;;5066318;28;20025;-53
2021/12/06 01:33:28;;;;;;;2.38;1.52;;;;;;;;;;5058275;28;20103;-51
2021/12/06 01:41:38;;;;;;;1.58;1.15;;;;;;;;;;5068087;28;20044;-52
2021/12/06 01:44:19;;;;;;;1.80;1.20;;;;;;;;;;5068380;28;20047;-53
2021/12/06 01:46:50;;;;;;;1.52;1.08;;;;;;;;;;5068433;28;20028;-52
2021/12/06 01:49:17;;;;;;;2.10;1.20;;;;;;;;;;5067502;28;20024;-49
2021/12/06 01:51:44;;;;;;;2.30;1.15;;;;;;;;;;5067987;28;20029;-52
2021/12/06 01:54:11;;;;;;;2.53;1.20;;;;;;;;;;5067536;28;20029;-52
2021/12/06 01:56:37;;;;;;;4.32;1.90;;;;;;;;;;5067993;28;20024;-51
2021/12/06 01:59:04;;;;;;;4.18;2.10;;;;;;;;;;5067329;28;20020;-53
2021/12/06 02:01:30;;;;;;;6.57;2.45;;;;;;;;;;5067796;28;20092;-49
2021/12/06 02:03:56;;;;;;;6.70;2.65;;;;;;;;;;5067731;28;20023;-49
2021/12/06 02:06:22;;;;;;;6.68;2.58;;;;;;;;;;5066938;28;20036;-52
2021/12/06 02:08:48;;;;;;;5.70;2.00;;;;;;;;;;5067598;28;20032;-50
2021/12/06 02:11:15;;;;;;;4.32;2.17;;;;;;;;;;5067943;28;20111;-50
2021/12/06 02:13:54;;;;;;;3.35;1.48;;;;;;;;;;5067547;28;20434;-49
2021/12/06 02:16:29;;;;;;;4.10;1.85;;;;;;;;;;5067997;28;20028;-51
2021/12/06 02:19:02;;;;;;;2.22;1.23;;;;;;;;;;5067019;28;20020;-51
2021/12/06 02:21:31;;;;;;;1.98;1.35;;;;;;;;;;5067726;28;20035;-49
2021/12/06 02:24:00;;;;;;;2.45;1.42;;;;;;;;;;5066493;28;20118;-51
2021/12/06 02:26:27;;;;;;;1.90;1.10;;;;;;;;;;5067560;28;20073;-51
2021/12/06 02:28:53;;;;;;;1.33;1.10;;;;;;;;;;5067031;28;20044;-50
2021/12/06 02:31:21;;;;;;;1.17;0.90;;;;;;;;;;5067765;28;20151;-53
2021/12/06 02:33:49;;;;;;;1.52;1.20;;;;;;;;;;5049744;28;20024;-50
2021/12/06 02:36:15;;;;;;;1.20;1.00;;;;;;;;;;5067897;28;20415;-51
2021/12/06 02:38:41;;;;;;;1.45;1.05;;;;;;;;;;5066497;28;20039;-49
2021/12/06 02:41:09;;;;;;;1.52;1.20;;;;;;;;;;5067836;28;20051;-50
2021/12/06 02:43:35;;;;;;;1.75;1.17;;;;;;;;;;5067158;28;20039;-50
2021/12/06 02:46:01;;;;;;;0.85;0.85;;;;;;;;;;5067727;28;20028;-49
2021/12/06 02:48:27;;;;;;;1.17;0.90;;;;;;;;;;5066714;28;20103;-49
2021/12/06 02:50:54;;;;;;;0.90;0.85;;;;;;;;;;5049565;28;20489;-52
2021/12/06 02:53:22;;;;;;;1.10;0.90;;;;;;;;;;5067817;28;20024;-52
2021/12/06 02:55:53;;;;;;;1.60;1.25;;;;;;;;;;5067854;28;20446;-50
2021/12/06 03:01:06;;;;;;;1.20;1.10;;;;;;;;;;5067336;28;20032;-53
2021/12/06 03:03:32;;;;;;;5.00;2.13;;;;;;;;;;5066187;28;20117;-53
2021/12/06 03:05:58;;;;;;;3.08;2.00;;;;;;;;;;5069969;28;20024;-52
2021/12/06 03:08:36;;;;;;;2.63;1.70;;;;;;;;;;5070521;28;20032;-53
2021/12/06 03:11:03;;;;;;;2.50;1.70;;;;;;;;;;5071420;28;20024;-52
2021/12/06 03:13:29;;;;;;;1.88;1.27;;;;;;;;;;5071211;28;20024;-53
2021/12/06 03:15:55;;;;;;;1.67;1.35;;;;;;;;;;5070902;28;20021;-53
2021/12/06 03:18:21;;;;;;;2.00;1.30;;;;;;;;;;5070036;28;20510;-53
2021/12/06 03:20:47;;;;;;;1.23;1.13;;;;;;;;;;5053214;28;20352;-51
2021/12/06 03:23:13;;;;;;;1.60;0.98;;;;;;;;;;5071476;28;20450;-52
2021/12/06 03:25:39;;;;;;;1.50;1.10;;;;;;;;;;5071141;28;20059;-52
2021/12/06 03:28:05;;;;;;;1.88;1.30;;;;;;;;;;5070665;28;20449;-53
2021/12/06 03:30:31;;;;;;;1.67;1.30;;;;;;;;;;5070943;28;20372;-53
2021/12/06 03:32:57;;;;;;;2.60;1.20;;;;;;;;;;5070921;28;20052;-51
2021/12/06 03:35:24;;;;;;;1.80;1.40;;;;;;;;;;5070894;28;20095;-52
2021/12/06 03:37:51;;;;;;;1.30;1.20;;;;;;;;;;5070535;28;20027;-52
2021/12/06 03:40:17;;;;;;;1.67;1.45;;;;;;;;;;5051069;28;20062;-52
2021/12/06 03:42:43;;;;;;;1.95;1.65;;;;;;;;;;5050727;28;20109;-52
2021/12/06 03:45:10;;;;;;;1.45;1.30;;;;;;;;;;5062003;28;20102;-50
2021/12/06 03:47:36;;;;;;;1.58;1.25;;;;;;;;;;5070597;28;20059;-52
2021/12/06 03:50:05;;;;;;;1.38;1.23;;;;;;;;;;5071063;28;20078;-53
2021/12/06 03:52:31;;;;;;;1.75;1.20;;;;;;;;;;5070567;28;20384;-53
2021/12/06 03:54:57;;;;;;;2.05;1.52;;;;;;;;;;5069448;28;20020;-53
2021/12/06 03:57:23;;;;;;;1.38;1.27;;;;;;;;;;5069763;28;20515;-53
2021/12/06 03:59:50;;;;;;;2.08;1.48;;;;;;;;;;5070964;28;20507;-52
2021/12/06 04:02:17;;;;;;;2.60;1.50;;;;;;;;;;5070429;28;20469;-52
2021/12/06 04:04:43;;;;;;;2.13;1.50;;;;;;;;;;5069088;28;20688;-51
2021/12/06 04:07:09;;;;;;;2.85;2.13;;;;;;;;;;5070138;28;20047;-53
2021/12/06 04:09:36;;;;;;;2.30;1.65;;;;;;;;;;5070235;28;20035;-52
2021/12/06 04:12:02;;;;;;;2.88;1.70;;;;;;;;;;5070231;28;20471;-53
2021/12/06 04:14:28;;;;;;;2.58;1.73;;;;;;;;;;5069144;28;20082;-50
2021/12/06 04:16:54;;;;;;;1.85;1.48;;;;;;;;;;5069039;28;20111;-52
2021/12/06 04:19:20;;;;;;;2.55;1.60;;;;;;;;;;5070374;28;20052;-50
2021/12/06 04:21:47;;;;;;;2.03;1.48;;;;;;;;;;5070161;28;20024;-50
2021/12/06 04:24:14;;;;;;;2.15;1.60;;;;;;;;;;5069471;28;20081;-49
2021/12/06 04:26:40;;;;;;;1.63;1.30;;;;;;;;;;5069854;28;20032;-52
2021/12/06 04:29:06;;;;;;;1.80;1.23;;;;;;;;;;5070226;28;20021;-53
2021/12/06 04:31:35;;;;;;;3.17;1.50;;;;;;;;;;5068793;28;20484;-49
2021/12/06 04:34:01;;;;;;;1.67;1.42;;;;;;;;;;5070159;28;20078;-50
2021/12/06 04:36:27;;;;;;;2.30;1.73;;;;;;;;;;5068937;28;20395;-49
2021/12/06 04:38:53;;;;;;;2.25;1.50;;;;;;;;;;5069890;28;20024;-50
2021/12/06 04:41:20;;;;;;;2.00;1.63;;;;;;;;;;5069960;28;20104;-52
2021/12/06 04:43:46;;;;;;;2.35;1.60;;;;;;;;;;5069114;28;20032;-49
2021/12/06 04:46:13;;;;;;;3.58;2.03;;;;;;;;;;5069886;28;20032;-49
2021/12/06 04:48:39;;;;;;;5.68;3.28;;;;;;;;;;5069482;28;20039;-49
2021/12/06 04:51:05;;;;;;;6.50;3.22;;;;;;;;;;5069660;28;20032;-50
2021/12/06 04:53:36;;;;;;;5.43;3.15;;;;;;;;;;5069433;28;20032;-51
2021/12/06 04:56:21;;;;;;;5.57;2.85;;;;;;;;;;5068899;28;20120;-50
2021/12/06 04:58:53;;;;;;;3.58;2.30;;;;;;;;;;5069608;28;20025;-49
2021/12/06 05:01:21;;;;;;;5.93;3.00;;;;;;;;;;5069620;28;20055;-52
2021/12/06 05:03:48;;;;;;;8.25;3.65;;;;;;;;;;5069737;28;20395;-49
2021/12/06 05:06:19;;;;;;;7.18;3.60;;;;;;;;;;5067584;28;20094;-50
2021/12/06 05:08:47;;;;;;;7.43;3.55;;;;;;;;;;5069348;28;20032;-49
2021/12/06 05:11:13;;;;;;;8.40;4.47;;;;;;;;;;5069218;28;20043;-49
2021/12/06 05:13:41;;;;;;;7.30;3.58;;;;;;;;;;5069071;28;20031;-49
2021/12/06 05:16:07;;;;;;;6.50;3.30;;;;;;;;;;5067289;28;20032;-51
2021/12/06 05:18:33;;;;;;;4.60;2.55;;;;;;;;;;5068938;28;20032;-51
2021/12/06 05:20:59;;;;;;;5.28;2.88;;;;;;;;;;5069289;28;20028;-49
2021/12/06 05:23:25;;;;;;;6.43;3.22;;;;;;;;;;5067517;28;20024;-51
2021/12/06 05:25:51;;;;;;;6.20;3.00;;;;;;;;;;5069262;28;20101;-50
2021/12/06 05:28:22;;;;;;;5.13;3.15;;;;;;;;;;5050975;28;20025;-49
2021/12/06 05:30:53;;;;;;;10.98;6.35;;;;;;;;;;5069262;28;20025;-49
2021/12/06 05:33:28;;;;;;;22.88;11.77;;;;;;;;;;5068024;28;20021;-52
2021/12/06 05:35:55;;;;;;;19.50;10.25;;;;;;;;;;5068831;28;20028;-50
2021/12/06 05:38:21;;;;;;;20.65;10.85;;;;;;;;;;5066213;28;20510;-52
2021/12/06 05:40:47;;;;;;;16.35;8.77;;;;;;;;;;5048458;28;20518;-49
2021/12/06 05:43:13;;;;;;;14.73;8.52;;;;;;;;;;5065878;28;20380;-52
2021/12/06 05:45:40;;;;;;;11.82;6.68;;;;;;;;;;5067330;28;20043;-50
2021/12/06 05:48:06;;;;;;;11.43;6.10;;;;;;;;;;5066709;28;20030;-51
2021/12/06 05:50:32;;;;;;;13.80;7.60;;;;;;;;;;5065740;28;20037;-52
2021/12/06 05:52:59;;;;;;;11.65;7.45;;;;;;;;;;5066445;28;20028;-51
2021/12/06 05:55:27;;;;;;;13.18;7.45;;;;;;;;;;5066356;28;20029;-51
2021/12/06 05:57:53;;;;;;;9.70;6.07;;;;;;;;;;5065727;28;20021;-52
2021/12/06 06:00:21;;;;;;;6.80;4.47;;;;;;;;;;5065582;28;20372;-52
2021/12/06 06:02:47;;;;;;;4.97;3.65;;;;;;;;;;5066001;28;20028;-52
2021/12/06 06:05:14;;;;;;;5.07;3.42;;;;;;;;;;5065940;28;20036;-52
2021/12/06 06:07:40;;;;;;;4.53;3.03;;;;;;;;;;5066803;28;20020;-51
2021/12/06 06:10:06;;;;;;;3.47;2.40;;;;;;;;;;5065572;28;20741;-52
2021/12/06 06:12:32;;;;;;;3.35;2.58;;;;;;;;;;5065292;28;20035;-50
2021/12/06 06:14:58;;;;;;;2.72;2.20;;;;;;;;;;5066357;28;20060;-50
2021/12/06 06:17:26;;;;;;;2.42;1.88;;;;;;;;;;5065861;28;20698;-49
2021/12/06 06:19:57;;;;;;;2.85;2.20;;;;;;;;;;5065559;28;20064;-50
2021/12/06 06:22:24;;;;;;;2.25;1.90;;;;;;;;;;5066089;28;20017;-51
2021/12/06 06:24:50;;;;;;;2.30;1.90;;;;;;;;;;5066211;28;20411;-49
2021/12/06 06:27:17;;;;;;;2.95;2.22;;;;;;;;;;5064822;28;20093;-51
2021/12/06 06:29:43;;;;;;;3.65;1.98;;;;;;;;;;5064398;28;20116;-50
2021/12/06 06:32:09;;;;;;;2.42;2.17;;;;;;;;;;5066183;28;20506;-53
2021/12/06 06:34:35;;;;;;;3.05;2.28;;;;;;;;;;5065965;28;20086;-53
2021/12/06 06:37:02;;;;;;;2.30;2.10;;;;;;;;;;5065173;28;20438;-52
2021/12/06 06:39:28;;;;;;;2.63;2.30;;;;;;;;;;5064227;28;20020;-49
2021/12/06 06:41:55;;;;;;;1.77;1.67;;;;;;;;;;5066032;28;20028;-49
2021/12/06 06:44:21;;;;;;;3.25;2.10;;;;;;;;;;5065321;28;20111;-52
2021/12/06 06:46:48;;;;;;;2.30;2.10;;;;;;;;;;5063863;28;20031;-49
2021/12/06 06:49:15;;;;;;;2.22;2.00;;;;;;;;;;5064826;28;20063;-50
2021/12/06 06:51:42;;;;;;;2.30;2.10;;;;;;;;;;5066506;28;20383;-51
2021/12/06 06:54:08;;;;;;;2.22;2.03;;;;;;;;;;5066388;28;20024;-49
2021/12/06 06:56:35;;;;;;;3.05;2.17;;;;;;;;;;5064718;28;20037;-51
2021/12/06 06:59:01;;;;;;;2.05;1.85;;;;;;;;;;5064706;28;20111;-50
2021/12/06 07:01:27;;;;;;;2.05;1.88;;;;;;;;;;5061066;28;20056;-49
2021/12/06 07:03:54;;;;;;;3.55;2.30;;;;;;;;;;5068963;28;20048;-53
2021/12/06 07:06:27;;;;;;;2.42;2.13;;;;;;;;;;5064289;28;20534;-52
2021/12/06 07:08:54;;;;;;;2.60;2.30;;;;;;;;;;5065725;28;20021;-53
2021/12/06 07:11:21;;;;;;;3.90;2.58;;;;;;;;;;5064452;28;20029;-52
2021/12/06 07:13:48;;;;;;;3.92;2.78;;;;;;;;;;5063646;28;20078;-52
2021/12/06 07:16:15;;;;;;;7.05;3.70;;;;;;;;;;5065529;28;20123;-50
2021/12/06 07:18:41;;;;;;;5.25;3.70;;;;;;;;;;5066268;28;20037;-51
2021/12/06 07:21:09;;;;;;;5.75;3.58;;;;;;;;;;5066398;28;20035;-49
2021/12/06 07:23:38;;;;;;;6.32;3.38;;;;;;;;;;5065156;28;20012;-52
2021/12/06 07:26:07;;;;;;;5.50;3.95;;;;;;;;;;5065382;28;20475;-50
2021/12/06 07:28:33;;;;;;;5.43;3.75;;;;;;;;;;5064917;28;20031;-52
2021/12/06 07:31:01;;;;;;;6.05;3.95;;;;;;;;;;5065341;28;20036;-53
2021/12/06 07:33:27;;;;;;;7.25;5.03;;;;;;;;;;5065069;28;20658;-51
2021/12/06 07:35:54;;;;;;;7.30;4.88;;;;;;;;;;5060543;28;20028;-49
2021/12/06 07:38:20;;;;;;;8.38;5.35;;;;;;;;;;5061024;28;20025;-51
2021/12/06 07:40:49;;;;;;;9.13;5.63;;;;;;;;;;5064019;28;20036;-51
2021/12/06 07:43:16;;;;;;;6.65;4.70;;;;;;;;;;5065483;28;20131;-53
2021/12/06 07:45:43;;;;;;;6.95;4.65;;;;;;;;;;5063807;28;20025;-53
2021/12/06 07:48:09;;;;;;;6.80;4.35;;;;;;;;;;5063488;28;20040;-52
2021/12/06 07:50:35;;;;;;;4.68;3.55;;;;;;;;;;5063167;28;20029;-51
2021/12/06 07:53:01;;;;;;;4.70;3.38;;;;;;;;;;5066810;28;20020;-52
2021/12/06 07:55:30;;;;;;;3.97;3.00;;;;;;;;;;5067623;28;20099;-52
2021/12/06 07:57:58;;;;;;;4.05;3.00;;;;;;;;;;5068774;28;20063;-52
2021/12/06 08:00:26;;;;;;;3.90;2.78;;;;;;;;;;5068238;28;20025;-51
2021/12/06 08:02:52;;;;;;;4.45;2.72;;;;;;;;;;5067996;28;20100;-52
2021/12/06 08:05:31;;;;;;;4.28;3.08;;;;;;;;;;5067151;28;20024;-52
2021/12/06 08:07:57;;;;;;;3.85;2.70;;;;;;;;;;5066942;28;20056;-51
2021/12/06 08:10:23;;;;;;;2.88;2.50;;;;;;;;;;5065588;28;20020;-53
2021/12/06 08:12:49;;;;;;;5.00;3.35;;;;;;;;;;5067346;28;20028;-50
2021/12/06 08:15:15;;;;;;;7.07;4.50;;;;;;;;;;5066572;28;20445;-50
2021/12/06 08:17:42;;;;;;;6.15;4.20;;;;;;;;;;5066563;28;20055;-49
2021/12/06 08:20:08;;;;;;;4.82;3.22;;;;;;;;;;5066925;28;20021;-49
2021/12/06 08:22:35;;;;;;;4.50;3.10;;;;;;;;;;5066694;28;20056;-52
2021/12/06 08:25:02;;;;;;;3.88;2.88;;;;;;;;;;5066935;28;20028;-50
2021/12/06 08:27:29;;;;;;;4.40;3.00;;;;;;;;;;5066663;28;20098;-52
2021/12/06 08:29:55;;;;;;;4.53;3.17;;;;;;;;;;5066433;28;20032;-52
2021/12/06 08:32:21;;;;;;;3.30;2.78;;;;;;;;;;5066846;28;20028;-51
2021/12/06 08:34:47;;;;;;;3.40;2.45;;;;;;;;;;5066350;28;20509;-52
2021/12/06 08:37:15;;;;;;;3.50;2.67;;;;;;;;;;5066435;28;20028;-52
2021/12/06 08:39:41;;;;;;;3.53;2.50;;;;;;;;;;5066344;28;20025;-53
2021/12/06 08:42:08;;;;;;;3.42;2.50;;;;;;;;;;5066511;28;20025;-53
2021/12/06 08:44:35;;;;;;;2.42;1.98;;;;;;;;;;5065919;28;20109;-53
2021/12/06 08:47:02;;;;;;;3.13;2.50;;;;;;;;;;5066287;28;20511;-54
2021/12/06 08:49:29;;;;;;;3.13;2.40;;;;;;;;;;5065914;28;20399;-53
2021/12/06 08:51:56;;;;;;;2.90;2.40;;;;;;;;;;5066197;28;20103;-53
2021/12/06 08:54:26;;;;;;;3.75;2.75;;;;;;;;;;5066481;28;20029;-53
2021/12/06 08:56:55;;;;;;;2.97;2.47;;;;;;;;;;5066748;28;20024;-51
2021/12/06 08:59:21;;;;;;;3.45;2.58;;;;;;;;;;5066654;28;20016;-53
2021/12/06 09:01:47;;;;;;;3.00;2.38;;;;;;;;;;5065663;28;20029;-54
2021/12/06 09:04:13;;;;;;;3.28;2.33;;;;;;;;;;5065179;28;20056;-54
2021/12/06 09:06:41;;;;;;;3.75;2.72;;;;;;;;;;5065338;28;20089;-52
2021/12/06 09:09:09;;;;;;;2.95;2.30;;;;;;;;;;5065634;28;20050;-53
2021/12/06 09:11:38;;;;;;;2.53;2.10;;;;;;;;;;5065759;28;20105;-52
2021/12/06 09:14:05;;;;;;;2.95;2.28;;;;;;;;;;5065672;28;20043;-53
2021/12/06 09:16:32;;;;;;;2.92;2.50;;;;;;;;;;5065584;28;20029;-53
2021/12/06 09:19:01;;;;;;;2.20;2.00;;;;;;;;;;5064220;28;20465;-54
2021/12/06 09:21:27;;;;;;;3.38;2.45;;;;;;;;;;5066102;28;20074;-53
2021/12/06 09:23:54;;;;;;;3.13;2.65;;;;;;;;;;5068394;28;20380;-54
2021/12/06 09:26:20;;;;;;;2.20;2.00;;;;;;;;;;5087831;28;20051;-51
2021/12/06 09:28:47;;;;;;;2.88;2.38;;;;;;;;;;5078180;28;20571;-53
2021/12/06 09:31:15;;;;;;;2.75;2.28;;;;;;;;;;5066790;28;20028;-53
2021/12/06 09:33:41;;;;;;;3.17;2.47;;;;;;;;;;5064593;28;20120;-53
2021/12/06 09:36:09;;;;;;;3.70;3.05;;;;;;;;;;5068938;28;20063;-52
2021/12/06 09:38:39;;;;;;;4.53;2.97;;;;;;;;;;5083579;28;20067;-50
2021/12/06 09:41:08;;;;;;;3.22;2.42;;;;;;;;;;5077246;28;20031;-53
2021/12/06 09:43:38;;;;;;;3.20;2.45;;;;;;;;;;5086864;28;20028;-53
2021/12/06 09:46:05;;;;;;;4.10;2.97;;;;;;;;;;5087190;28;20062;-52
2021/12/06 09:48:31;;;;;;;3.13;2.53;;;;;;;;;;5086690;28;20491;-53
2021/12/06 09:51:05;;;;;;;3.88;2.47;;;;;;;;;;5087026;28;20038;-54
2021/12/06 09:53:33;;;;;;;3.75;2.55;;;;;;;;;;5074300;28;20119;-53
2021/12/06 09:56:01;;;;;;;4.07;2.90;;;;;;;;;;5066582;28;20071;-52
2021/12/06 09:58:30;;;;;;;3.25;2.50;;;;;;;;;;5066186;28;20021;-53
2021/12/06 10:00:59;;;;;;;3.80;3.03;;;;;;;;;;5066448;28;20016;-53
2021/12/06 10:03:28;;;;;;;3.83;3.17;;;;;;;;;;5066972;28;20029;-53
2021/12/06 10:06:02;;;;;;;3.35;2.78;;;;;;;;;;5066501;28;20036;-53
2021/12/06 10:08:29;;;;;;;3.28;2.47;;;;;;;;;;5066230;28;20035;-52
2021/12/06 10:10:56;;;;;;;3.40;2.38;;;;;;;;;;5066289;28;20055;-54
2021/12/06 10:13:22;;;;;;;3.05;2.38;;;;;;;;;;5066578;28;20036;-53
2021/12/06 10:15:50;;;;;;;2.90;2.40;;;;;;;;;;5066362;28;20140;-54
2021/12/06 10:18:18;;;;;;;2.92;2.15;;;;;;;;;;5077153;28;20012;-54
2021/12/06 10:20:46;;;;;;;3.53;2.30;;;;;;;;;;5066032;28;20024;-54
2021/12/06 10:23:12;;;;;;;4.35;2.88;;;;;;;;;;5066091;28;20040;-52
2021/12/06 10:25:41;;;;;;;5.53;3.58;;;;;;;;;;5065958;28;20117;-53
2021/12/06 10:28:07;;;;;;;4.22;2.95;;;;;;;;;;5063804;28;20028;-54
2021/12/06 10:30:36;;;;;;;6.05;3.70;;;;;;;;;;5063042;28;20032;-52
2021/12/06 10:33:04;;;;;;;5.45;3.33;;;;;;;;;;5071388;28;20522;-52
2021/12/06 10:35:30;;;;;;;5.78;3.03;;;;;;;;;;5075898;28;20027;-50
2021/12/06 10:37:57;;;;;;;4.80;3.40;;;;;;;;;;5085929;28;20024;-53
2021/12/06 10:40:41;;;;;;;3.85;2.80;;;;;;;;;;5086440;28;20039;-54
2021/12/06 10:43:11;;;;;;;5.28;3.20;;;;;;;;;;5069889;28;20024;-54
2021/12/06 10:45:42;;;;;;;4.72;3.05;;;;;;;;;;5066500;28;20108;-52
2021/12/06 10:48:14;;;;;;;3.42;2.53;;;;;;;;;;5069670;28;20043;-53
2021/12/06 10:50:46;;;;;;;3.03;2.10;;;;;;;;;;5065707;28;20476;-52
2021/12/06 10:53:13;;;;;;;3.83;2.65;;;;;;;;;;5066048;28;20029;-54
2021/12/06 10:55:39;;;;;;;6.50;3.83;;;;;;;;;;5065931;28;20039;-53
2021/12/06 10:58:07;;;;;;;9.88;4.80;;;;;;;;;;5065627;28;20040;-53
2021/12/06 11:00:36;;;;;;;11.75;5.65;;;;;;;;;;5070529;28;20032;-53
2021/12/06 11:03:03;;;;;;;10.80;5.55;;;;;;;;;;5067576;28;20029;-54
2021/12/06 11:05:31;;;;;;;13.40;6.22;;;;;;;;;;5085020;28;20032;-50
2021/12/06 11:08:17;;;;;;;11.65;5.50;;;;;;;;;;5075747;28;20486;-52
2021/12/06 11:10:48;;;;;;;12.70;5.65;;;;;;;;;;5085683;28;20035;-52
2021/12/06 11:13:22;;;;;;;9.20;4.95;;;;;;;;;;5085669;28;20101;-53
2021/12/06 11:16:15;;;;;;;9.90;4.80;;;;;;;;;;5085671;28;20028;-53
2021/12/06 11:18:44;;;;;;;9.07;4.90;;;;;;;;;;5058665;28;20032;-53
2021/12/06 11:21:21;;;;;;;10.15;4.95;;;;;;;;;;5064422;28;20032;-53
2021/12/06 11:23:57;;;;;;;10.27;5.25;;;;;;;;;;5067627;28;20066;-51
2021/12/06 11:26:23;;;;;;;9.20;4.57;;;;;;;;;;5074986;28;20411;-51
2021/12/06 11:28:49;;;;;;;7.10;3.80;;;;;;;;;;5066447;28;20064;-53
2021/12/06 11:31:16;;;;;;;6.90;4.10;;;;;;;;;;5070247;28;20053;-53
2021/12/06 11:33:43;;;;;;;5.28;3.30;;;;;;;;;;5075805;28;20085;-53
2021/12/06 11:36:20;;;;;;;5.13;3.10;;;;;;;;;;5067838;28;20027;-52
2021/12/06 11:38:49;;;;;;;4.07;2.50;;;;;;;;;;5063292;28;20524;-52
2021/12/06 11:41:16;;;;;;;4.95;3.00;;;;;;;;;;5065650;28;20093;-53
2021/12/06 11:43:42;;;;;;;5.40;2.60;;;;;;;;;;5064579;28;20028;-51
2021/12/06 11:46:10;;;;;;;4.15;2.50;;;;;;;;;;5068173;28;20032;-53
2021/12/06 11:48:38;;;;;;;3.45;2.22;;;;;;;;;;5068201;28;20459;-53
2021/12/06 11:51:12;;;;;;;4.18;2.65;;;;;;;;;;5068286;28;20032;-53
2021/12/06 11:53:41;;;;;;;5.35;2.97;;;;;;;;;;5066060;28;20562;-53
2021/12/06 11:56:08;;;;;;;4.20;2.97;;;;;;;;;;5066638;28;20058;-52
2021/12/06 11:58:36;;;;;;;4.60;3.10;;;;;;;;;;5066232;28;20032;-53
2021/12/06 12:01:12;;;;;;;9.38;3.85;;;;;;;;;;5068122;28;20479;-53
2021/12/06 12:03:40;;;;;;;9.23;4.30;;;;;;;;;;5066760;28;20048;-53
2021/12/06 12:06:23;;;;;;;8.85;4.05;;;;;;;;;;5051978;28;20130;-52
2021/12/06 12:09:00;;;;;;;9.68;4.60;;;;;;;;;;5063054;28;20439;-54
2021/12/06 12:11:26;;;;;;;10.60;4.45;;;;;;;;;;5067763;28;20414;-54
2021/12/06 12:13:53;;;;;;;10.18;5.00;;;;;;;;;;5066951;28;20051;-54
2021/12/06 12:16:21;;;;;;;12.35;5.40;;;;;;;;;;5066756;28;20116;-54
2021/12/06 12:18:47;;;;;;;10.15;5.28;;;;;;;;;;5066842;28;20070;-54
2021/12/06 12:21:14;;;;;;;10.88;5.65;;;;;;;;;;5067766;28;20026;-54
2021/12/06 12:23:42;;;;;;;8.52;4.60;;;;;;;;;;5066643;28;20107;-53
2021/12/06 12:26:12;;;;;;;6.85;4.25;;;;;;;;;;5066285;28;20040;-53
2021/12/06 12:28:50;;;;;;;12.80;5.20;;;;;;;;;;5066440;28;20024;-53
2021/12/06 12:31:17;;;;;;;9.07;4.50;;;;;;;;;;5067321;28;20028;-53
2021/12/06 12:33:46;;;;;;;6.15;3.45;;;;;;;;;;5067215;28;20029;-53
2021/12/06 12:36:13;;;;;;;6.35;3.22;;;;;;;;;;5067136;28;20052;-53
2021/12/06 12:38:40;;;;;;;4.93;3.00;;;;;;;;;;5066017;28;20511;-54
2021/12/06 12:41:08;;;;;;;4.70;2.83;;;;;;;;;;5069424;28;20028;-54
2021/12/06 12:43:45;;;;;;;6.05;2.95;;;;;;;;;;5065740;28;20033;-53
2021/12/06 12:46:22;;;;;;;5.25;2.92;;;;;;;;;;5066554;28;20491;-53
2021/12/06 12:49:00;;;;;;;5.53;3.40;;;;;;;;;;5067303;28;20074;-53
2021/12/06 12:51:34;;;;;;;6.10;3.60;;;;;;;;;;5066068;28;20028;-53
2021/12/06 12:54:03;;;;;;;5.50;3.38;;;;;;;;;;5067039;28;20056;-51
2021/12/06 12:56:34;;;;;;;5.60;3.58;;;;;;;;;;5066115;28;20785;-54
2021/12/06 12:59:16;;;;;;;6.05;3.70;;;;;;;;;;5064545;28;20028;-53
2021/12/06 13:01:45;;;;;;;6.43;3.50;;;;;;;;;;5065032;28;20025;-54
2021/12/06 13:04:12;;;;;;;5.28;3.40;;;;;;;;;;5066370;28;20024;-54
2021/12/06 13:06:39;;;;;;;5.25;3.33;;;;;;;;;;5067417;28;20032;-55
2021/12/06 13:09:05;;;;;;;4.57;3.33;;;;;;;;;;5062211;28;20107;-53
2021/12/06 13:11:52;;;;;;;5.78;3.33;;;;;;;;;;5063908;28;20522;-53
2021/12/06 13:14:31;;;;;;;4.65;3.15;;;;;;;;;;5063923;28;20025;-53
2021/12/06 13:17:05;;;;;;;4.38;3.30;;;;;;;;;;5067118;28;20526;-54
2021/12/06 13:19:41;;;;;;;3.67;3.08;;;;;;;;;;5065814;28;20062;-54
2021/12/06 13:22:12;;;;;;;3.72;2.72;;;;;;;;;;5062436;28;20489;-53
2021/12/06 13:24:43;;;;;;;5.07;3.17;;;;;;;;;;5063117;28;20459;-53
2021/12/06 13:27:18;;;;;;;5.20;3.35;;;;;;;;;;5066328;28;20028;-53
2021/12/06 13:29:49;;;;;;;4.63;3.10;;;;;;;;;;5066595;28;20090;-53
2021/12/06 13:32:31;;;;;;;4.65;3.22;;;;;;;;;;5058723;28;20033;-54
2021/12/06 13:35:14;;;;;;;4.60;2.92;;;;;;;;;;5046010;28;20573;-53
2021/12/06 13:37:40;;;;;;;5.22;3.47;;;;;;;;;;5048971;28;20033;-54
2021/12/06 13:40:16;;;;;;;4.80;3.28;;;;;;;;;;5066033;28;20028;-55
2021/12/06 13:42:43;;;;;;;6.70;4.63;;;;;;;;;;5066071;28;20077;-53
2021/12/06 13:45:20;;;;;;;5.78;4.00;;;;;;;;;;5066450;28;20424;-54
2021/12/06 13:47:48;;;;;;;5.85;3.85;;;;;;;;;;5048274;28;20028;-53
2021/12/06 13:50:15;;;;;;;5.68;4.00;;;;;;;;;;5065977;28;20063;-54
2021/12/06 13:52:43;;;;;;;5.40;3.78;;;;;;;;;;5065561;28;20020;-54
2021/12/06 13:55:20;;;;;;;5.90;4.00;;;;;;;;;;5066038;28;20082;-52
2021/12/06 13:57:48;;;;;;;4.28;3.47;;;;;;;;;;5066094;28;20021;-53
2021/12/06 14:00:23;;;;;;;4.93;3.53;;;;;;;;;;5066134;28;20032;-54
2021/12/06 14:02:50;;;;;;;6.30;3.90;;;;;;;;;;5065936;28;20654;-55
2021/12/06 14:05:16;;;;;;;5.70;3.85;;;;;;;;;;5065768;28;20047;-54
2021/12/06 14:07:43;;;;;;;6.28;4.10;;;;;;;;;;5065876;28;20024;-54
2021/12/06 14:10:13;;;;;;;5.20;3.55;;;;;;;;;;5065707;28;20028;-51
2021/12/06 14:12:40;;;;;;;5.32;3.65;;;;;;;;;;5065103;28;20446;-55
2021/12/06 14:15:17;;;;;;;4.18;3.10;;;;;;;;;;5064237;28;20056;-53
2021/12/06 14:17:45;;;;;;;5.32;3.80;;;;;;;;;;5065804;28;20028;-53
2021/12/06 14:20:11;;;;;;;5.50;3.75;;;;;;;;;;5065704;28;20025;-53
2021/12/06 14:22:37;;;;;;;4.75;3.42;;;;;;;;;;5065273;28;20031;-53
2021/12/06 14:25:04;;;;;;;6.43;4.13;;;;;;;;;;5065823;28;20040;-53
2021/12/06 14:27:36;;;;;;;4.70;3.28;;;;;;;;;;5065579;28;20028;-52
2021/12/06 14:30:03;;;;;;;5.32;3.50;;;;;;;;;;5065866;28;20035;-53
2021/12/06 14:32:30;;;;;;;5.60;3.90;;;;;;;;;;5065600;28;20395;-53
2021/12/06 14:34:57;;;;;;;6.35;3.45;;;;;;;;;;5065642;28;20404;-53
2021/12/06 14:37:25;;;;;;;6.65;3.95;;;;;;;;;;5065945;28;20017;-51
2021/12/06 14:39:56;;;;;;;6.93;4.30;;;;;;;;;;5066324;28;20040;-51
2021/12/06 14:42:22;;;;;;;6.78;3.75;;;;;;;;;;5065893;28;20024;-51
2021/12/06 14:44:56;;;;;;;7.53;4.32;;;;;;;;;;5065266;28;20028;-51
2021/12/06 14:47:26;;;;;;;6.50;4.13;;;;;;;;;;5065842;28;20035;-54
2021/12/06 14:49:53;;;;;;;6.78;4.03;;;;;;;;;;5066401;28;20103;-53
2021/12/06 14:52:24;;;;;;;6.78;4.25;;;;;;;;;;5066242;28;20020;-54
2021/12/06 14:54:57;;;;;;;6.88;4.50;;;;;;;;;;5067015;28;20051;-54
2021/12/06 14:57:31;;;;;;;9.02;4.68;;;;;;;;;;5066861;28;20029;-52
2021/12/06 15:00:01;;;;;;;7.18;4.60;;;;;;;;;;5066298;28;20028;-53